createdAt,value
2018-05-27T00:00:58.720Z,23.86
2018-05-27T00:03:25.106Z,23.79
2018-05-27T00:05:51.486Z,23.83
2018-05-27T00:08:17.801Z,23.78
2018-05-27T00:10:44.423Z,23.70
2018-05-27T00:13:11.060Z,23.71
2018-05-27T00:15:37.510Z,23.76
2018-05-27T00:18:03.924Z,23.67
2018-05-27T00:20:30.247Z,23.76
2018-05-27T00:22:56.585Z,23.58
2018-05-27T00:25:22.919Z,23.64
2018-05-27T00:27:49.350Z,23.60
2018-05-27T00:30:15.677Z,23.64
2018-05-27T00:32:42.010Z,23.64
2018-05-27T00:35:08.333Z,23.51
2018-05-27T00:37:34.717Z,23.59
2018-05-27T00:40:01.088Z,23.60
2018-05-27T00:42:27.556Z,23.67
2018-05-27T00:44:53.877Z,23.49
2018-05-27T00:47:20.241Z,23.45
2018-05-27T00:49:46.587Z,23.58
2018-05-27T00:52:13.021Z,23.56
2018-05-27T00:54:40.107Z,23.57
2018-05-27T00:57:06.529Z,23.50
2018-05-27T00:59:32.815Z,23.43
2018-05-27T01:01:59.862Z,23.46
2018-05-27T01:04:26.331Z,23.35
2018-05-27T01:06:52.933Z,23.49
2018-05-27T01:09:20.025Z,23.32
2018-05-27T01:11:46.348Z,23.42
2018-05-27T01:14:12.743Z,23.39
2018-05-27T01:16:39.084Z,23.39
2018-05-27T01:19:06.228Z,23.40
2018-05-27T01:21:33.318Z,23.34
2018-05-27T01:23:59.767Z,23.34
2018-05-27T01:26:26.084Z,23.43
2018-05-27T01:28:52.454Z,23.42
2018-05-27T01:31:18.833Z,23.48
2018-05-27T01:33:45.161Z,23.45
2018-05-27T01:36:12.012Z,23.38
2018-05-27T01:38:38.347Z,23.43
2018-05-27T01:41:04.770Z,23.43
2018-05-27T01:43:31.120Z,23.40
2018-05-27T01:45:58.307Z,23.27
2018-05-27T01:48:25.352Z,23.34
2018-05-27T01:50:52.447Z,23.38
2018-05-27T01:53:18.785Z,23.35
2018-05-27T01:55:45.191Z,23.31
2018-05-27T01:58:11.498Z,23.31
2018-05-27T02:00:38.537Z,23.28
2018-05-27T02:03:05.750Z,23.26
2018-05-27T02:05:32.124Z,23.18
2018-05-27T02:07:59.215Z,23.28
2018-05-27T02:10:25.559Z,23.27
2018-05-27T02:12:51.952Z,23.25
2018-05-27T02:15:18.280Z,23.29
2018-05-27T02:17:44.631Z,23.31
2018-05-27T02:20:10.974Z,23.26
2018-05-27T02:22:37.351Z,23.31
2018-05-27T02:25:04.403Z,23.30
2018-05-27T02:27:31.470Z,23.33
2018-05-27T02:29:57.814Z,23.29
2018-05-27T02:32:24.299Z,23.33
2018-05-27T02:34:50.898Z,23.37
2018-05-27T02:37:17.821Z,23.41
2018-05-27T02:39:44.180Z,23.39
2018-05-27T02:42:11.255Z,23.37
2018-05-27T02:44:38.343Z,23.31
2018-05-27T02:47:04.697Z,23.34
2018-05-27T02:49:31.841Z,23.47
2018-05-27T02:51:58.244Z,23.45
2018-05-27T02:54:24.830Z,23.37
2018-05-27T02:56:51.204Z,23.44
2018-05-27T02:59:17.550Z,23.32
2018-05-27T03:01:43.861Z,23.26
2018-05-27T03:04:10.376Z,23.22
2018-05-27T03:06:37.491Z,23.18
2018-05-27T03:09:04.645Z,23.05
2018-05-27T03:11:30.971Z,22.92
2018-05-27T03:13:57.368Z,22.99
2018-05-27T03:16:23.692Z,22.81
2018-05-27T03:18:50.024Z,22.51
2018-05-27T03:21:16.372Z,22.33
2018-05-27T03:23:42.721Z,22.17
2018-05-27T03:26:09.062Z,22.07
2018-05-27T03:28:35.466Z,22.00
2018-05-27T03:31:02.051Z,22.00
2018-05-27T03:33:29.081Z,21.81
2018-05-27T03:35:56.177Z,21.86
2018-05-27T03:38:22.972Z,21.72
2018-05-27T03:40:49.285Z,21.54
2018-05-27T03:43:15.629Z,21.32
2018-05-27T03:45:42.777Z,21.56
2018-05-27T03:48:09.274Z,21.32
2018-05-27T03:50:35.637Z,21.19
2018-05-27T03:53:01.966Z,21.35
2018-05-27T03:55:28.354Z,21.30
2018-05-27T03:57:54.728Z,21.31
2018-05-27T04:00:21.093Z,21.18
2018-05-27T04:02:47.463Z,21.42
2018-05-27T04:05:32.215Z,21.44
2018-05-27T04:08:18.614Z,21.21
2018-05-27T04:10:44.943Z,21.18
2018-05-27T04:13:11.308Z,21.13
2018-05-27T04:15:37.602Z,21.23
2018-05-27T04:18:03.971Z,21.09
2018-05-27T04:20:30.275Z,21.03
2018-05-27T04:22:56.600Z,20.92
2018-05-27T04:25:22.961Z,20.82
2018-05-27T04:27:49.368Z,20.65
2018-05-27T04:30:15.727Z,20.68
2018-05-27T04:32:42.178Z,20.86
2018-05-27T04:35:09.387Z,20.62
2018-05-27T04:37:35.755Z,20.43
2018-05-27T04:40:02.839Z,20.51
2018-05-27T04:42:29.195Z,20.71
2018-05-27T04:44:55.501Z,20.47
2018-05-27T04:47:21.834Z,20.29
2018-05-27T04:49:48.186Z,20.28
2018-05-27T04:52:14.512Z,20.33
2018-05-27T04:54:40.826Z,20.34
2018-05-27T04:57:07.133Z,20.15
2018-05-27T04:59:33.528Z,20.17
2018-05-27T05:02:00.661Z,20.51
2018-05-27T05:04:27.019Z,20.54
2018-05-27T05:06:54.159Z,20.52
2018-05-27T05:09:21.303Z,20.29
2018-05-27T05:11:48.410Z,20.32
2018-05-27T05:14:14.775Z,20.29
2018-05-27T05:16:41.082Z,20.46
2018-05-27T05:19:07.409Z,20.88
2018-05-27T05:21:33.871Z,20.77
2018-05-27T05:24:01.138Z,20.70
2018-05-27T05:26:27.572Z,20.65
2018-05-27T05:28:53.962Z,20.86
2018-05-27T05:31:20.391Z,21.22
2018-05-27T05:33:46.796Z,21.38
2018-05-27T05:36:13.175Z,21.62
2018-05-27T05:38:40.345Z,21.89
2018-05-27T05:41:07.635Z,22.59
2018-05-27T05:43:34.278Z,23.92
2018-05-27T05:46:00.697Z,24.11
2018-05-27T05:48:27.102Z,25.08
2018-05-27T05:50:53.641Z,26.51
2018-05-27T05:53:19.976Z,26.98
2018-05-27T05:55:46.425Z,28.01
2018-05-27T05:58:12.992Z,27.88
2018-05-27T06:00:39.363Z,28.17
2018-05-27T06:03:06.503Z,27.25
2018-05-27T06:05:33.730Z,28.57
2018-05-27T06:08:00.227Z,28.90
2018-05-27T06:10:26.698Z,29.61
2018-05-27T06:12:53.181Z,28.70
2018-05-27T06:15:19.623Z,29.11
2018-05-27T06:17:46.171Z,29.78
2018-05-27T06:20:12.551Z,29.03
2018-05-27T06:22:39.745Z,28.51
2018-05-27T06:25:06.242Z,28.79
2018-05-27T06:27:32.796Z,29.46
2018-05-27T06:29:59.228Z,29.06
2018-05-27T06:32:25.696Z,29.38
2018-05-27T06:34:52.102Z,29.80
2018-05-27T06:37:18.542Z,29.20
2018-05-27T06:39:45.093Z,28.26
2018-05-27T06:42:11.497Z,29.88
2018-05-27T06:44:37.995Z,30.94
2018-05-27T06:47:04.530Z,30.25
2018-05-27T06:49:31.708Z,29.59
2018-05-27T06:51:58.117Z,31.79
2018-05-27T06:54:25.233Z,32.46
2018-05-27T06:56:51.623Z,31.16
2018-05-27T06:59:17.998Z,30.59
2018-05-27T07:01:44.408Z,30.56
2018-05-27T07:04:10.888Z,31.28
2018-05-27T07:06:38.077Z,31.68
2018-05-27T07:09:04.707Z,31.24
2018-05-27T07:11:31.040Z,31.64
2018-05-27T07:13:57.464Z,31.03
2018-05-27T07:16:24.025Z,30.28
2018-05-27T07:18:50.401Z,29.30
2018-05-27T07:21:16.828Z,28.52
2018-05-27T07:23:44.024Z,28.13
2018-05-27T07:26:10.416Z,27.77
2018-05-27T07:28:36.740Z,27.57
2018-05-27T07:31:03.164Z,26.79
2018-05-27T07:33:30.280Z,26.95
2018-05-27T07:35:56.679Z,26.99
2018-05-27T07:38:23.146Z,26.95
2018-05-27T07:40:49.523Z,26.97
2018-05-27T07:43:16.773Z,27.13
2018-05-27T07:45:44.057Z,27.15
2018-05-27T07:48:10.429Z,26.94
2018-05-27T07:50:36.838Z,27.23
2018-05-27T07:53:03.245Z,27.14
2018-05-27T07:55:29.653Z,27.37
2018-05-27T07:57:56.083Z,26.98
2018-05-27T08:00:22.469Z,27.04
2018-05-27T08:02:48.943Z,26.93
2018-05-27T08:05:16.123Z,26.93
2018-05-27T08:07:42.560Z,26.66
2018-05-27T08:10:08.981Z,26.72
2018-05-27T08:12:35.421Z,26.91
2018-05-27T08:15:01.858Z,26.91
2018-05-27T08:17:28.524Z,27.29
2018-05-27T08:19:55.111Z,27.30
2018-05-27T08:22:21.543Z,27.56
2018-05-27T08:24:47.990Z,28.05
2018-05-27T08:27:14.400Z,28.50
2018-05-27T08:29:40.946Z,28.69
2018-05-27T08:32:07.433Z,28.57
2018-05-27T08:34:33.833Z,28.22
2018-05-27T08:37:00.261Z,28.20
2018-05-27T08:39:26.829Z,28.72
2018-05-27T08:41:53.426Z,28.33
2018-05-27T08:44:19.982Z,27.79
2018-05-27T08:46:46.530Z,27.87
2018-05-27T08:49:13.030Z,27.99
2018-05-27T08:51:43.969Z,28.12
2018-05-27T08:54:10.514Z,28.10
2018-05-27T08:56:36.896Z,28.51
2018-05-27T08:59:04.194Z,28.64
2018-05-27T09:01:30.904Z,28.38
2018-05-27T09:03:57.471Z,28.41
2018-05-27T09:06:23.907Z,28.65
2018-05-27T09:08:50.556Z,28.35
2018-05-27T09:11:17.123Z,27.91
2018-05-27T09:13:44.326Z,28.75
2018-05-27T09:16:10.777Z,29.22
2018-05-27T09:18:37.289Z,29.23
2018-05-27T09:21:04.026Z,29.37
2018-05-27T09:23:31.149Z,29.30
2018-05-27T09:25:57.683Z,29.06
2018-05-27T09:28:24.287Z,29.08
2018-05-27T09:30:50.987Z,28.84
2018-05-27T09:33:17.403Z,28.71
2018-05-27T09:35:50.880Z,29.04
2018-05-27T09:38:17.553Z,29.62
2018-05-27T09:40:44.285Z,29.97
2018-05-27T09:43:10.875Z,30.23
2018-05-27T09:45:39.036Z,30.31
2018-05-27T09:48:05.795Z,30.00
2018-05-27T09:50:32.681Z,29.55
2018-05-27T09:52:59.129Z,29.34
2018-05-27T09:55:25.639Z,29.37
2018-05-27T09:58:08.565Z,29.58
2018-05-27T10:00:36.169Z,29.64
2018-05-27T10:03:03.356Z,30.16
2018-05-27T10:05:30.061Z,29.91
2018-05-27T10:07:56.446Z,30.40
2018-05-27T10:10:22.992Z,29.92
2018-05-27T10:12:49.456Z,29.93
2018-05-27T10:15:15.895Z,30.25
2018-05-27T10:17:43.003Z,29.91
2018-05-27T10:20:09.543Z,29.63
2018-05-27T10:22:36.503Z,29.72
2018-05-27T10:25:03.822Z,29.77
2018-05-27T10:27:30.423Z,29.80
2018-05-27T10:29:56.974Z,30.09
2018-05-27T10:32:27.763Z,29.78
2018-05-27T10:34:55.180Z,30.22
2018-05-27T10:37:21.696Z,30.27
2018-05-27T10:39:48.268Z,30.51
2018-05-27T10:42:15.589Z,30.39
2018-05-27T10:44:42.119Z,30.76
2018-05-27T10:47:08.861Z,30.76
2018-05-27T10:49:35.319Z,31.26
2018-05-27T10:52:01.965Z,31.14
2018-05-27T10:54:28.422Z,31.10
2018-05-27T10:56:55.722Z,30.88
2018-05-27T10:59:22.448Z,30.37
2018-05-27T11:01:48.863Z,30.19
2018-05-27T11:04:15.320Z,30.34
2018-05-27T11:06:42.013Z,30.42
2018-05-27T11:09:09.300Z,30.05
2018-05-27T11:11:36.848Z,30.43
2018-05-27T11:14:03.257Z,30.98
2018-05-27T11:16:30.652Z,30.85
2018-05-27T11:18:57.923Z,31.07
2018-05-27T11:21:24.427Z,30.66
2018-05-27T11:23:50.974Z,30.57
2018-05-27T11:26:17.502Z,30.89
2018-05-27T11:28:43.971Z,30.96
2018-05-27T11:31:10.584Z,31.42
2018-05-27T11:33:37.084Z,31.40
2018-05-27T11:36:03.511Z,31.53
2018-05-27T11:38:29.985Z,31.99
2018-05-27T11:40:56.595Z,31.72
2018-05-27T11:43:23.148Z,31.70
2018-05-27T11:45:49.581Z,31.61
2018-05-27T11:48:16.111Z,31.75
2018-05-27T11:50:42.587Z,31.81
2018-05-27T11:53:09.027Z,31.88
2018-05-27T11:55:35.441Z,31.90
2018-05-27T11:58:02.070Z,31.59
2018-05-27T12:00:28.470Z,31.91
2018-05-27T12:02:54.821Z,31.56
2018-05-27T12:05:21.233Z,31.46
2018-05-27T12:07:47.729Z,31.51
2018-05-27T12:10:14.929Z,31.49
2018-05-27T12:12:41.456Z,31.81
2018-05-27T12:15:07.990Z,31.89
2018-05-27T12:17:34.420Z,32.19
2018-05-27T12:20:00.997Z,32.31
2018-05-27T12:22:27.495Z,32.38
2018-05-27T12:24:53.979Z,32.13
2018-05-27T12:27:21.287Z,32.27
2018-05-27T12:29:47.705Z,31.98
2018-05-27T12:32:14.119Z,32.34
2018-05-27T12:34:40.528Z,32.17
2018-05-27T12:37:07.698Z,32.21
2018-05-27T12:39:34.329Z,32.29
2018-05-27T12:42:01.075Z,32.05
2018-05-27T12:44:27.531Z,31.83
2018-05-27T12:46:54.082Z,31.80
2018-05-27T12:49:20.685Z,31.73
2018-05-27T12:51:47.140Z,32.00
2018-05-27T12:54:13.670Z,31.69
2018-05-27T12:56:40.261Z,31.22
2018-05-27T12:59:06.759Z,31.60
2018-05-27T13:01:33.274Z,31.44
2018-05-27T13:03:59.885Z,31.78
2018-05-27T13:06:26.351Z,31.91
2018-05-27T13:08:52.785Z,31.12
2018-05-27T13:11:19.235Z,31.72
2018-05-27T13:13:45.713Z,31.74
2018-05-27T13:16:12.238Z,31.51
2018-05-27T13:18:38.812Z,31.67
2018-05-27T13:21:05.261Z,31.57
2018-05-27T13:23:31.885Z,30.94
2018-05-27T13:25:58.318Z,30.59
2018-05-27T13:28:24.816Z,30.72
2018-05-27T13:30:51.188Z,31.13
2018-05-27T13:33:17.628Z,30.83
2018-05-27T13:35:44.037Z,30.59
2018-05-27T13:38:10.477Z,30.54
2018-05-27T13:40:36.918Z,30.74
2018-05-27T13:43:03.336Z,30.49
2018-05-27T13:45:29.688Z,30.47
2018-05-27T13:47:56.029Z,30.45
2018-05-27T13:50:22.428Z,30.22
2018-05-27T13:52:48.829Z,30.06
2018-05-27T13:55:15.287Z,29.62
2018-05-27T13:57:42.350Z,29.20
2018-05-27T14:00:08.761Z,29.48
2018-05-27T14:02:35.058Z,29.53
2018-05-27T14:05:02.197Z,29.17
2018-05-27T14:07:28.581Z,29.13
2018-05-27T14:09:54.911Z,28.54
2018-05-27T14:12:21.532Z,27.95
2018-05-27T14:14:47.879Z,27.97
2018-05-27T14:17:14.349Z,27.88
2018-05-27T14:19:40.713Z,27.72
2018-05-27T14:24:40.274Z,27.62
2018-05-27T14:27:06.805Z,27.52
2018-05-27T14:29:33.241Z,27.42
2018-05-27T14:31:59.677Z,27.48
2018-05-27T14:34:26.110Z,27.49
2018-05-27T14:36:52.506Z,27.31
2018-05-27T14:39:19.037Z,27.05
2018-05-27T14:41:45.584Z,27.04
2018-05-27T14:44:11.940Z,26.91
2018-05-27T14:46:38.313Z,26.98
2018-05-27T14:49:04.784Z,27.02
2018-05-27T14:51:31.246Z,26.97
2018-05-27T14:53:57.634Z,27.13
2018-05-27T14:56:24.123Z,27.33
2018-05-27T14:58:54.937Z,26.87
2018-05-27T15:01:21.355Z,26.74
2018-05-27T15:03:47.766Z,26.86
2018-05-27T15:06:14.270Z,26.51
2018-05-27T15:08:41.321Z,26.38
2018-05-27T15:11:07.754Z,26.24
2018-05-27T15:13:34.874Z,26.20
2018-05-27T15:16:01.211Z,26.38
2018-05-27T15:18:27.624Z,26.56
2018-05-27T15:20:54.022Z,26.13
2018-05-27T15:23:20.351Z,26.30
2018-05-27T15:25:46.749Z,26.17
2018-05-27T15:28:13.833Z,26.01
2018-05-27T15:30:40.226Z,26.25
2018-05-27T15:33:07.354Z,26.16
2018-05-27T15:35:33.673Z,26.24
2018-05-27T15:38:00.035Z,26.13
2018-05-27T15:40:27.173Z,26.00
2018-05-27T15:42:54.377Z,26.25
2018-05-27T15:45:20.732Z,26.23
2018-05-27T15:47:47.171Z,26.02
2018-05-27T15:50:13.564Z,26.19
2018-05-27T15:52:40.060Z,26.25
2018-05-27T15:55:06.417Z,26.28
2018-05-27T15:57:32.812Z,26.13
2018-05-27T16:00:00.027Z,25.91
2018-05-27T16:02:26.498Z,25.80
2018-05-27T16:04:53.712Z,25.69
2018-05-27T16:07:20.853Z,25.79
2018-05-27T16:09:48.072Z,25.63
2018-05-27T16:12:14.483Z,25.59
2018-05-27T16:14:41.683Z,25.62
2018-05-27T16:17:08.234Z,25.39
2018-05-27T16:19:35.262Z,25.20
2018-05-27T16:22:01.756Z,25.10
2018-05-27T16:24:28.832Z,25.03
2018-05-27T16:26:55.264Z,25.27
2018-05-27T16:29:22.683Z,25.38
2018-05-27T16:31:49.875Z,25.43
2018-05-27T16:34:16.238Z,25.58
2018-05-27T16:36:42.746Z,25.50
2018-05-27T16:39:09.257Z,25.45
2018-05-27T16:41:35.690Z,25.25
2018-05-27T16:44:02.097Z,25.27
2018-05-27T16:46:29.258Z,25.51
2018-05-27T16:48:55.680Z,25.62
2018-05-27T16:51:22.896Z,25.34
2018-05-27T16:53:49.417Z,25.26
2018-05-27T16:56:15.793Z,25.54
2018-05-27T16:58:43.006Z,25.57
2018-05-27T17:01:10.067Z,25.35
2018-05-27T17:03:36.451Z,25.58
2018-05-27T17:06:02.956Z,25.18
2018-05-27T17:08:30.122Z,25.21
2018-05-27T17:10:56.530Z,25.21
2018-05-27T17:13:23.709Z,25.16
2018-05-27T17:15:50.295Z,25.30
2018-05-27T17:18:17.502Z,25.14
2018-05-27T17:20:43.828Z,25.00
2018-05-27T17:23:10.218Z,25.33
2018-05-27T17:25:37.426Z,25.09
2018-05-27T17:28:03.898Z,24.66
2018-05-27T17:30:31.015Z,24.52
2018-05-27T17:32:57.728Z,24.45
2018-05-27T17:35:24.151Z,24.66
2018-05-27T17:37:50.567Z,25.03
2018-05-27T17:40:17.756Z,24.84
2018-05-27T17:42:44.123Z,24.91
2018-05-27T17:45:10.585Z,24.73
2018-05-27T17:47:37.062Z,24.82
2018-05-27T17:50:03.469Z,24.89
2018-05-27T17:52:29.910Z,25.06
2018-05-27T17:54:56.236Z,25.11
2018-05-27T17:57:22.611Z,25.31
2018-05-27T17:59:48.994Z,25.20
2018-05-27T18:02:15.490Z,25.15
2018-05-27T18:04:42.661Z,25.35
2018-05-27T18:07:09.244Z,25.40
2018-05-27T18:09:35.590Z,25.51
2018-05-27T18:12:02.069Z,25.45
2018-05-27T18:14:28.626Z,25.43
2018-05-27T18:16:54.965Z,25.44
2018-05-27T18:19:21.325Z,25.37
2018-05-27T18:21:48.535Z,24.89
2018-05-27T18:24:15.136Z,24.78
2018-05-27T18:26:41.530Z,24.81
2018-05-27T18:29:07.916Z,24.78
2018-05-27T18:31:34.291Z,24.89
2018-05-27T18:34:00.804Z,24.84
2018-05-27T18:36:27.204Z,25.03
2018-05-27T18:38:53.633Z,24.89
2018-05-27T18:41:20.033Z,25.04
2018-05-27T18:43:46.630Z,25.10
2018-05-27T18:46:13.117Z,25.11
2018-05-27T18:48:40.322Z,25.01
2018-05-27T18:51:06.900Z,24.85
2018-05-27T18:53:34.234Z,24.42
2018-05-27T18:56:00.675Z,24.29
2018-05-27T18:58:27.792Z,24.40
2018-05-27T19:00:54.159Z,24.17
2018-05-27T19:03:21.305Z,23.97
2018-05-27T19:05:48.599Z,23.67
2018-05-27T19:08:15.004Z,23.46
2018-05-27T19:10:41.782Z,23.31
2018-05-27T19:13:08.234Z,23.14
2018-05-27T19:15:35.215Z,22.98
2018-05-27T19:18:01.631Z,22.89
2018-05-27T19:20:27.969Z,22.95
2018-05-27T19:22:55.147Z,22.78
2018-05-27T19:25:21.622Z,22.69
2018-05-27T19:27:47.995Z,22.63
2018-05-27T19:30:14.385Z,22.55
2018-05-27T19:32:40.981Z,22.79
2018-05-27T19:35:07.432Z,22.78
2018-05-27T19:37:33.961Z,22.60
2018-05-27T19:40:00.461Z,22.49
2018-05-27T19:42:26.973Z,22.59
2018-05-27T19:44:53.627Z,22.74
2018-05-27T19:47:20.781Z,22.39
2018-05-27T19:49:47.359Z,22.38
2018-05-27T19:52:13.799Z,22.46
2018-05-27T19:54:40.835Z,22.53
2018-05-27T19:57:07.250Z,22.57
2018-05-27T19:59:33.781Z,22.44
2018-05-27T20:02:00.167Z,22.39
2018-05-27T20:04:26.571Z,22.35
2018-05-27T20:06:54.758Z,22.36
2018-05-27T20:09:21.538Z,22.35
2018-05-27T20:11:47.946Z,22.28
2018-05-27T20:14:14.385Z,22.22
2018-05-27T20:16:41.070Z,22.34
2018-05-27T20:19:07.803Z,22.30
2018-05-27T20:21:35.384Z,22.21
2018-05-27T20:24:01.940Z,22.19
2018-05-27T20:26:29.163Z,22.13
2018-05-27T20:28:55.857Z,22.08
2018-05-27T20:31:22.276Z,22.19
2018-05-27T20:33:49.388Z,22.26
2018-05-27T20:36:15.725Z,22.27
2018-05-27T20:38:42.602Z,22.37
2018-05-27T20:41:09.078Z,22.31
2018-05-27T20:43:35.499Z,22.31
2018-05-27T20:46:01.938Z,22.21
2018-05-27T20:48:28.312Z,22.11
2018-05-27T20:50:54.619Z,22.22
2018-05-27T20:53:20.991Z,22.30
2018-05-27T20:55:48.069Z,22.43
2018-05-27T20:58:14.467Z,22.35
2018-05-27T21:00:41.581Z,22.23
2018-05-27T21:03:07.991Z,22.23
2018-05-27T21:05:34.327Z,22.23
2018-05-27T21:08:00.667Z,22.25
2018-05-27T21:10:27.243Z,22.28
2018-05-27T21:12:54.319Z,22.28
2018-05-27T21:15:20.680Z,22.27
2018-05-27T21:17:47.032Z,22.35
2018-05-27T21:20:13.407Z,22.36
2018-05-27T21:22:39.712Z,22.32
2018-05-27T21:25:06.795Z,22.12
2018-05-27T21:27:33.154Z,22.09
2018-05-27T21:29:59.561Z,22.13
2018-05-27T21:32:25.998Z,22.14
2018-05-27T21:34:52.331Z,22.14
2018-05-27T21:37:18.815Z,22.21
2018-05-27T21:39:46.396Z,22.22
2018-05-27T21:42:12.750Z,22.28
2018-05-27T21:44:39.077Z,22.40
2018-05-27T21:47:05.447Z,22.33
2018-05-27T21:49:32.612Z,22.61
2018-05-27T21:51:59.718Z,22.83
2018-05-27T21:54:26.091Z,22.83
2018-05-27T21:56:53.186Z,22.65
2018-05-27T21:59:19.557Z,22.42
2018-05-27T22:01:46.655Z,22.33
2018-05-27T22:04:13.000Z,22.24
2018-05-27T22:06:39.494Z,22.29
2018-05-27T22:09:05.901Z,22.27
2018-05-27T22:11:33.008Z,22.37
2018-05-27T22:13:59.381Z,22.21
2018-05-27T22:16:26.540Z,22.11
2018-05-27T22:18:53.710Z,22.17
2018-05-27T22:21:20.052Z,21.95
2018-05-27T22:23:46.394Z,21.93
2018-05-27T22:26:12.732Z,21.83
2018-05-27T22:28:39.880Z,21.80
2018-05-27T22:31:06.310Z,21.85
2018-05-27T22:33:32.685Z,21.82
2018-05-27T22:35:59.807Z,21.79
2018-05-27T22:38:26.154Z,21.72
2018-05-27T22:40:53.537Z,21.75
2018-05-27T22:43:19.874Z,21.66
2018-05-27T22:45:46.179Z,21.72
2018-05-27T22:48:13.227Z,21.70
2018-05-27T22:50:39.658Z,21.57
2018-05-27T22:53:06.025Z,21.58
2018-05-27T22:55:32.490Z,21.68
2018-05-27T22:57:58.897Z,21.65
2018-05-27T23:00:25.302Z,21.66
2018-05-27T23:02:51.615Z,21.82
2018-05-27T23:05:17.966Z,21.67
2018-05-27T23:07:44.294Z,21.96
2018-05-27T23:10:10.624Z,22.11
2018-05-27T23:12:36.953Z,22.13
2018-05-27T23:15:03.324Z,22.24
2018-05-27T23:17:29.697Z,22.31
2018-05-27T23:19:56.045Z,22.27
2018-05-27T23:22:22.392Z,22.17
2018-05-27T23:24:48.761Z,22.29
2018-05-27T23:27:15.164Z,22.27
2018-05-27T23:29:41.541Z,22.21
2018-05-27T23:32:07.897Z,22.11
2018-05-27T23:34:34.235Z,22.21
2018-05-27T23:37:00.683Z,22.09
2018-05-27T23:39:26.987Z,21.83
2018-05-27T23:41:53.420Z,21.68
2018-05-27T23:44:19.727Z,21.57
2018-05-27T23:46:46.852Z,21.51
2018-05-27T23:49:13.961Z,21.32
2018-05-27T23:51:40.265Z,21.25
2018-05-27T23:54:06.598Z,21.14
2018-05-27T23:56:32.911Z,21.19
2018-05-27T23:58:59.238Z,20.96
